Time;durP1;ratioP1;P1;durP2;ratioP2;P2;SDS_P1;SDS_P2;PMS_P1;PMS_P2;Temp;Humidity;BMP_temperature;BMP_pressure;BME280_temperature;BME280_humidity;BME280_pressure;Samples;Min_cycle;Max_cycle;Signal;HPM_P1;HPM_P2
2022/03/18 00:00:39;;;;;;;14.05;6.30;;;2.20;99.90;;;;;;5028104;28;20483;-61
2022/03/18 00:03:05;;;;;;;18.13;7.68;;;2.20;99.90;;;;;;5019754;28;20047;-62
2022/03/18 00:05:32;;;;;;;18.13;8.25;;;2.20;99.90;;;;;;5018375;28;20387;-61
2022/03/18 00:07:58;;;;;;;19.50;9.48;;;2.30;99.90;;;;;;5023602;28;20044;-61
2022/03/18 00:10:23;;;;;;;21.63;8.18;;;2.30;99.90;;;;;;5028331;28;20407;-61
2022/03/18 00:12:52;;;;;;;18.13;8.07;;;2.40;99.90;;;;;;5043197;22;20056;-61
2022/03/18 00:15:18;;;;;;;15.23;8.55;;;2.30;99.90;;;;;;5034073;28;20071;-61
2022/03/18 00:17:44;;;;;;;13.35;5.25;;;2.30;99.90;;;;;;5038616;28;20037;-61
2022/03/18 00:20:12;;;;;;;11.32;6.47;;;2.20;99.90;;;;;;5048013;28;20124;-61
2022/03/18 00:22:39;;;;;;;13.98;7.47;;;2.20;99.90;;;;;;5031491;28;20292;-61
2022/03/18 00:25:06;;;;;;;19.52;9.13;;;2.10;99.90;;;;;;5040584;28;20044;-61
2022/03/18 00:27:32;;;;;;;18.60;8.38;;;2.10;99.90;;;;;;5047838;28;20368;-61
2022/03/18 00:29:58;;;;;;;17.42;5.60;;;2.10;99.90;;;;;;5036329;28;20036;-61
2022/03/18 00:32:24;;;;;;;12.52;7.45;;;2.00;99.90;;;;;;5044921;28;20122;-61
2022/03/18 00:34:50;;;;;;;17.90;8.55;;;2.00;99.90;;;;;;5047307;28;20041;-61
2022/03/18 00:37:16;;;;;;;18.88;8.65;;;2.10;99.90;;;;;;5029778;28;20143;-61
2022/03/18 00:39:42;;;;;;;13.27;8.10;;;2.10;99.90;;;;;;5042451;28;20487;-61
2022/03/18 00:42:09;;;;;;;18.48;8.60;;;2.00;99.90;;;;;;5047630;28;20033;-61
2022/03/18 00:44:36;;;;;;;16.75;7.72;;;2.00;99.90;;;;;;5029730;28;20501;-61
2022/03/18 00:47:01;;;;;;;12.65;7.40;;;2.00;99.90;;;;;;5045223;28;20129;-61
2022/03/18 00:52:14;;;;;;;15.27;7.88;;;1.80;99.90;;;;;;5047532;28;20045;-61
2022/03/18 00:54:42;;;;;;;16.73;7.93;;;1.80;99.90;;;;;;5023788;28;20037;-61
2022/03/18 00:57:09;;;;;;;8.10;5.43;;;1.90;99.90;;;;;;5042753;28;20044;-61
2022/03/18 00:59:35;;;;;;;12.68;6.40;;;1.80;99.90;;;;;;5047633;28;20040;-61
2022/03/18 01:02:02;;;;;;;16.90;8.48;;;1.80;99.90;;;;;;5047795;28;20357;-61
2022/03/18 01:04:31;;;;;;;14.68;7.78;;;1.80;99.90;;;;;;5037479;28;20044;-61
2022/03/18 01:06:57;;;;;;;15.95;8.27;;;1.90;99.90;;;;;;5046380;28;20120;-61
2022/03/18 01:09:25;;;;;;;13.70;8.18;;;1.90;99.90;;;;;;5047394;28;20112;-61
2022/03/18 01:11:52;;;;;;;16.42;7.80;;;1.90;99.90;;;;;;5037869;28;20049;-61
2022/03/18 01:14:19;;;;;;;14.82;8.02;;;1.90;99.90;;;;;;5034015;28;20036;-61
2022/03/18 01:16:44;;;;;;;13.10;6.80;;;1.90;99.90;;;;;;5047413;28;20033;-61
2022/03/18 01:19:11;;;;;;;14.85;6.78;;;1.90;99.90;;;;;;5047613;28;20037;-61
2022/03/18 01:21:37;;;;;;;13.88;7.32;;;1.80;99.90;;;;;;5037873;28;20036;-61
2022/03/18 01:24:03;;;;;;;15.40;7.50;;;1.80;99.90;;;;;;5015429;28;20037;-61
2022/03/18 01:26:29;;;;;;;10.25;5.93;;;1.80;99.90;;;;;;5042863;28;20114;-61
2022/03/18 01:28:56;;;;;;;13.63;6.35;;;1.70;99.90;;;;;;5041469;28;20107;-61
2022/03/18 01:31:23;;;;;;;14.75;6.40;;;1.70;99.90;;;;;;5045787;28;20554;-61
2022/03/18 01:33:48;;;;;;;18.50;7.07;;;1.60;99.90;;;;;;5047094;28;20037;-61
2022/03/18 01:36:14;;;;;;;10.68;6.13;;;1.60;99.90;;;;;;5047105;28;20033;-61
2022/03/18 01:38:40;;;;;;;15.85;8.70;;;1.60;99.90;;;;;;5045315;28;20032;-61
2022/03/18 01:41:05;;;;;;;19.20;8.48;;;1.60;99.90;;;;;;5046891;28;20126;-61
2022/03/18 01:43:42;;;;;;;22.60;4.70;;;1.60;99.90;;;;;;5046930;28;20051;-62
2022/03/18 01:46:09;;;;;;;68.28;5.38;;;1.60;99.90;;;;;;5040906;28;20043;-62
2022/03/18 01:48:35;;;;;;;34.60;6.72;;;1.40;99.90;;;;;;5045005;28;20037;-61
2022/03/18 01:51:03;;;;;;;17.65;7.47;;;1.30;99.90;;;;;;5030653;28;20126;-61
2022/03/18 01:53:28;;;;;;;14.93;7.88;;;1.30;99.90;;;;;;5044105;28;20080;-61
2022/03/18 01:55:55;;;;;;;19.58;8.50;;;1.40;99.90;;;;;;5050540;28;20565;-61
2022/03/18 01:58:24;;;;;;;18.95;7.50;;;1.40;99.90;;;;;;5050671;28;20041;-61
2022/03/18 02:00:50;;;;;;;16.15;6.50;;;1.30;99.90;;;;;;5039222;28;20033;-61
2022/03/18 02:03:15;;;;;;;15.75;7.38;;;1.20;99.90;;;;;;5032293;28;20128;-62
2022/03/18 02:05:41;;;;;;;11.60;6.78;;;1.10;99.90;;;;;;5047764;28;20044;-62
2022/03/18 02:08:08;;;;;;;18.10;8.25;;;1.10;99.90;;;;;;5050560;28;20433;-61
2022/03/18 02:10:35;;;;;;;16.52;8.68;;;1.00;99.90;;;;;;5040852;28;20033;-61
2022/03/18 02:13:00;;;;;;;16.55;7.97;;;1.10;99.90;;;;;;5041562;28;20116;-61
2022/03/18 02:15:26;;;;;;;23.10;8.70;;;1.10;99.90;;;;;;5050347;28;20140;-61
2022/03/18 02:17:51;;;;;;;20.17;9.35;;;1.20;99.90;;;;;;5046225;28;20041;-61
2022/03/18 02:20:17;;;;;;;15.95;7.97;;;1.20;99.90;;;;;;5042886;28;20044;-61
2022/03/18 02:22:43;;;;;;;16.33;8.82;;;1.30;99.90;;;;;;5050044;28;20589;-61
2022/03/18 02:25:09;;;;;;;16.85;9.23;;;1.30;99.90;;;;;;5050182;28;20040;-61
2022/03/18 02:27:52;;;;;;;18.73;9.57;;;1.30;99.90;;;;;;5045714;28;20176;-61
2022/03/18 02:30:17;;;;;;;16.73;10.40;;;1.30;99.90;;;;;;5044021;28;20737;-61
2022/03/18 02:32:43;;;;;;;20.08;10.80;;;1.30;99.90;;;;;;5049570;28;20037;-61
2022/03/18 02:35:08;;;;;;;17.42;8.82;;;1.40;99.90;;;;;;5047743;28;20059;-61
2022/03/18 02:37:34;;;;;;;16.88;8.95;;;1.20;99.90;;;;;;5042358;28;20037;-61
2022/03/18 02:39:59;;;;;;;24.42;10.73;;;1.20;99.90;;;;;;5050090;28;20041;-61
2022/03/18 02:42:25;;;;;;;22.90;11.43;;;1.20;99.90;;;;;;5048295;28;20047;-60
2022/03/18 02:44:50;;;;;;;16.55;8.65;;;1.20;99.90;;;;;;5038782;28;20055;-61
2022/03/18 02:47:16;;;;;;;16.38;8.35;;;1.10;99.90;;;;;;5049996;28;20840;-61
2022/03/18 02:49:42;;;;;;;16.50;8.40;;;1.10;99.90;;;;;;5049914;28;20079;-61
2022/03/18 02:52:07;;;;;;;19.92;10.23;;;0.90;99.90;;;;;;5036385;28;20446;-61
2022/03/18 02:54:34;;;;;;;22.75;10.23;;;0.90;99.90;;;;;;5049421;28;20037;-61
2022/03/18 02:57:00;;;;;;;22.35;11.27;;;1.00;99.90;;;;;;5049460;28;20041;-61
2022/03/18 02:59:26;;;;;;;19.65;10.70;;;1.00;99.90;;;;;;5041222;28;20106;-61
2022/03/18 03:01:51;;;;;;;24.33;10.10;;;1.10;99.90;;;;;;5047969;28;20481;-61
2022/03/18 03:04:17;;;;;;;19.80;9.55;;;1.10;99.90;;;;;;5049031;28;20090;-61
2022/03/18 03:09:27;;;;;;;18.35;8.30;;;1.10;99.90;;;;;;5044592;28;20033;-61
2022/03/18 03:11:53;;;;;;;17.90;9.20;;;1.00;99.90;;;;;;5048796;28;20552;-61
2022/03/18 03:14:19;;;;;;;20.45;8.80;;;0.90;99.90;;;;;;5048813;28;20045;-61
2022/03/18 03:16:44;;;;;;;16.48;8.50;;;0.90;99.90;;;;;;5049359;28;20044;-61
2022/03/18 03:19:10;;;;;;;18.48;6.97;;;0.80;99.90;;;;;;5043971;28;20043;-61
2022/03/18 03:21:37;;;;;;;12.75;7.45;;;0.70;99.90;;;;;;5049022;28;20037;-61
2022/03/18 03:24:03;;;;;;;19.13;8.63;;;0.60;99.90;;;;;;5047719;28;20033;-61
2022/03/18 03:26:29;;;;;;;18.45;7.78;;;0.60;99.90;;;;;;5044292;28;20052;-61
2022/03/18 03:28:54;;;;;;;18.25;8.20;;;0.70;99.90;;;;;;5048436;28;20123;-61
2022/03/18 03:31:20;;;;;;;12.07;7.30;;;0.60;99.90;;;;;;5049252;28;20041;-61
2022/03/18 03:33:45;;;;;;;18.00;8.63;;;0.70;99.90;;;;;;5048908;28;20394;-61
2022/03/18 03:36:11;;;;;;;13.70;6.60;;;0.70;99.90;;;;;;5037552;28;20032;-61
2022/03/18 03:38:37;;;;;;;10.45;6.35;;;0.60;99.90;;;;;;5048482;28;20041;-61
2022/03/18 03:41:03;;;;;;;14.45;6.72;;;0.40;99.90;;;;;;5044426;28;20033;-61
2022/03/18 03:43:28;;;;;;;14.52;7.20;;;0.30;99.90;;;;;;5030584;28;20590;-60
2022/03/18 03:45:54;;;;;;;14.38;6.63;;;0.20;99.90;;;;;;5047602;28;20119;-61
2022/03/18 03:48:19;;;;;;;13.13;6.80;;;0.20;99.90;;;;;;5047254;28;20072;-62
2022/03/18 03:50:45;;;;;;;16.50;7.10;;;0.20;99.90;;;;;;5037444;28;20400;-60
2022/03/18 03:53:10;;;;;;;15.35;6.85;;;0.10;99.90;;;;;;5047978;28;20067;-61
2022/03/18 03:55:39;;;;;;;11.00;5.78;;;0.10;99.90;;;;;;5030077;28;20049;-61
2022/03/18 03:58:08;;;;;;;11.13;5.82;;;0.00;99.90;;;;;;5012893;28;20136;-61
2022/03/18 04:00:38;;;;;;;9.85;6.35;;;0.00;99.90;;;;;;5043228;28;20078;-62
2022/03/18 04:03:04;;;;;;;10.85;6.60;;;0.00;99.90;;;;;;5040160;28;20065;-61
2022/03/18 04:05:32;;;;;;;13.38;7.18;;;-0.10;99.90;;;;;;5048071;28;20094;-62
2022/03/18 04:07:58;;;;;;;9.65;6.78;;;-0.20;99.90;;;;;;5044402;28;20041;-60
2022/03/18 04:10:24;;;;;;;10.88;6.60;;;-0.10;99.90;;;;;;5040490;28;20116;-61
2022/03/18 04:12:50;;;;;;;18.83;9.32;;;-0.10;99.90;;;;;;5047571;28;20457;-61
2022/03/18 04:15:15;;;;;;;21.63;10.68;;;0.00;99.90;;;;;;5026907;28;20667;-61
2022/03/18 04:17:43;;;;;;;18.42;7.88;;;0.10;99.90;;;;;;5041353;28;20036;-61
2022/03/18 04:20:14;;;;;;;18.65;7.97;;;0.20;99.90;;;;;;5047814;28;20089;-61
2022/03/18 04:22:40;;;;;;;17.20;8.60;;;0.20;99.90;;;;;;5047775;28;20048;-61
2022/03/18 04:25:06;;;;;;;13.77;7.78;;;0.10;99.90;;;;;;5039466;28;20032;-61
2022/03/18 04:27:33;;;;;;;16.35;7.53;;;0.10;99.90;;;;;;5047949;28;20090;-61
2022/03/18 04:29:59;;;;;;;17.17;8.15;;;0.10;99.90;;;;;;5047723;28;20044;-61
2022/03/18 04:32:24;;;;;;;11.45;7.40;;;0.10;99.90;;;;;;5016877;28;20042;-61
2022/03/18 04:34:50;;;;;;;12.75;7.05;;;0.10;99.90;;;;;;5039199;28;20098;-61
2022/03/18 04:37:16;;;;;;;15.25;7.85;;;0.10;99.90;;;;;;5047666;28;20087;-61
2022/03/18 04:39:41;;;;;;;12.35;7.78;;;0.10;99.90;;;;;;5042079;28;20458;-61
2022/03/18 04:42:07;;;;;;;12.20;6.50;;;0.10;99.90;;;;;;5021141;28;20037;-61
2022/03/18 04:44:33;;;;;;;15.75;8.52;;;0.10;99.90;;;;;;5047797;28;20064;-61
2022/03/18 04:46:58;;;;;;;12.98;7.82;;;0.10;99.90;;;;;;5048018;28;20060;-61
2022/03/18 04:49:24;;;;;;;14.70;8.55;;;0.00;99.90;;;;;;5039304;28;20030;-61
2022/03/18 04:51:50;;;;;;;9.63;6.30;;;0.00;99.90;;;;;;5037138;28;20090;-61
2022/03/18 04:54:15;;;;;;;11.52;6.60;;;-0.10;99.90;;;;;;5047043;28;20056;-61
2022/03/18 04:59:25;;;;;;;8.18;5.10;;;0.00;99.90;;;;;;5043589;28;20056;-61
2022/03/18 05:01:51;;;;;;;5.88;4.13;;;-0.10;99.90;;;;;;5041383;28;20033;-60
2022/03/18 05:04:16;;;;;;;29.92;5.88;;;-0.10;99.90;;;;;;5045089;28;20041;-61
2022/03/18 05:06:42;;;;;;;17.70;9.73;;;-0.10;99.90;;;;;;5042303;28;20098;-61
2022/03/18 05:09:07;;;;;;;10.13;6.80;;;-0.10;99.90;;;;;;5047010;28;20029;-61
2022/03/18 05:11:33;;;;;;;10.77;6.03;;;0.00;99.90;;;;;;5047386;28;20076;-61
2022/03/18 05:13:59;;;;;;;18.65;10.38;;;0.00;99.90;;;;;;5038721;28;20033;-61
2022/03/18 05:16:25;;;;;;;22.80;13.02;;;0.00;99.90;;;;;;5047113;28;20428;-61
2022/03/18 05:18:51;;;;;;;22.88;12.82;;;0.30;99.90;;;;;;5029575;28;20057;-61
2022/03/18 05:21:17;;;;;;;25.35;14.65;;;0.30;99.90;;;;;;5042088;28;20048;-61
2022/03/18 05:23:43;;;;;;;25.85;13.52;;;0.40;99.90;;;;;;5032657;28;20416;-61
2022/03/18 05:26:09;;;;;;;20.42;11.77;;;0.50;99.90;;;;;;5051212;28;20155;-61
2022/03/18 05:28:35;;;;;;;24.73;12.73;;;0.50;99.90;;;;;;5051186;28;20140;-61
2022/03/18 05:31:00;;;;;;;21.05;11.25;;;0.50;99.90;;;;;;5047749;28;20083;-61
2022/03/18 05:33:26;;;;;;;14.13;9.00;;;0.50;99.90;;;;;;5048650;28;20743;-61
2022/03/18 05:35:52;;;;;;;17.48;9.55;;;0.40;99.90;;;;;;5050556;28;20041;-61
2022/03/18 05:38:17;;;;;;;17.45;9.75;;;0.40;99.90;;;;;;5049281;28;20029;-61
2022/03/18 05:40:43;;;;;;;24.98;11.10;;;0.30;99.90;;;;;;5048165;28;20048;-61
2022/03/18 05:43:09;;;;;;;12.68;8.27;;;0.30;99.90;;;;;;5047749;28;20083;-61
2022/03/18 05:45:35;;;;;;;14.93;7.90;;;0.30;99.90;;;;;;5040953;28;20686;-61
2022/03/18 05:48:00;;;;;;;17.02;7.85;;;0.10;99.90;;;;;;5047298;28;20190;-61
2022/03/18 05:50:26;;;;;;;17.38;8.23;;;-0.20;99.90;;;;;;5029406;28;20048;-61
2022/03/18 05:52:52;;;;;;;16.10;8.77;;;-0.40;99.90;;;;;;5044402;28;20033;-60
2022/03/18 05:55:18;;;;;;;19.98;8.82;;;-0.50;99.90;;;;;;5033998;28;20035;-61
2022/03/18 05:57:43;;;;;;;20.00;9.80;;;-0.50;99.90;;;;;;5041189;28;20881;-61
2022/03/18 06:00:10;;;;;;;20.33;9.48;;;-0.60;99.90;;;;;;5047594;28;20406;-61
2022/03/18 06:02:36;;;;;;;12.13;7.57;;;-0.50;99.90;;;;;;5047666;28;20049;-61
2022/03/18 06:05:02;;;;;;;24.73;11.25;;;-0.50;99.90;;;;;;5043076;28;20041;-61
2022/03/18 06:07:28;;;;;;;22.35;13.18;;;-0.30;99.90;;;;;;5034022;28;20057;-61
2022/03/18 06:12:38;;;;;;;27.38;13.13;;;0.20;99.90;;;;;;5027770;28;20049;-60
2022/03/18 06:15:04;;;;;;;20.73;12.27;;;0.20;99.90;;;;;;5040321;28;20032;-61
2022/03/18 06:17:29;;;;;;;19.52;10.85;;;0.20;99.90;;;;;;5046352;28;20075;-61
2022/03/18 06:19:55;;;;;;;16.90;9.50;;;0.30;99.90;;;;;;5047417;28;20072;-61
2022/03/18 06:22:21;;;;;;;19.25;10.32;;;0.30;99.90;;;;;;5045179;28;20106;-61
2022/03/18 06:24:46;;;;;;;17.58;10.68;;;0.40;99.90;;;;;;5044665;28;20120;-61
2022/03/18 06:27:13;;;;;;;17.42;10.10;;;0.50;99.90;;;;;;5046242;28;20056;-60
2022/03/18 06:29:42;;;;;;;19.40;10.18;;;0.50;99.90;;;;;;5042959;28;20041;-61
2022/03/18 06:32:09;;;;;;;18.08;10.55;;;0.50;99.90;;;;;;5046412;28;20048;-61
2022/03/18 06:34:35;;;;;;;17.70;10.00;;;0.50;99.90;;;;;;5046521;28;20055;-61
2022/03/18 06:37:00;;;;;;;16.70;10.25;;;0.50;99.90;;;;;;5046034;28;20045;-61
2022/03/18 06:39:26;;;;;;;21.77;10.38;;;0.60;99.90;;;;;;5034154;28;20151;-61
2022/03/18 06:41:52;;;;;;;14.82;9.63;;;0.60;99.90;;;;;;5045093;28;20094;-61
2022/03/18 06:44:18;;;;;;;17.48;9.77;;;0.70;99.90;;;;;;5044884;28;20582;-61
2022/03/18 06:46:44;;;;;;;16.08;10.05;;;0.70;99.90;;;;;;5046163;28;20041;-61
2022/03/18 06:49:10;;;;;;;22.27;10.93;;;0.70;99.90;;;;;;5046583;28;20039;-61
2022/03/18 06:51:36;;;;;;;19.98;10.32;;;0.80;99.90;;;;;;5046393;28;20098;-61
2022/03/18 06:54:02;;;;;;;20.33;9.88;;;0.80;99.90;;;;;;5040311;28;20037;-61
2022/03/18 06:56:29;;;;;;;17.25;9.73;;;0.90;99.90;;;;;;5039078;28;20041;-61
2022/03/18 06:58:55;;;;;;;21.20;10.90;;;0.90;99.90;;;;;;5040562;28;20052;-61
2022/03/18 07:01:21;;;;;;;22.55;10.77;;;1.10;99.90;;;;;;5035967;28;20040;-61
2022/03/18 07:03:48;;;;;;;20.02;11.60;;;1.10;99.90;;;;;;5033227;28;20088;-61
2022/03/18 07:06:13;;;;;;;23.50;12.15;;;1.20;99.90;;;;;;5048968;28;20143;-61
2022/03/18 07:08:39;;;;;;;19.13;11.50;;;1.20;99.90;;;;;;5049423;28;20056;-61
2022/03/18 07:11:05;;;;;;;17.63;11.50;;;1.30;99.90;;;;;;5039846;28;20047;-61
2022/03/18 07:13:31;;;;;;;22.63;12.25;;;1.40;99.90;;;;;;5048556;28;20060;-61
2022/03/18 07:17:54;;;;;;;27.08;13.70;;;1.50;99.90;;;;;;5031077;28;20080;-61
2022/03/18 07:18:42;;;;;;;24.13;12.88;;;1.60;99.90;;;;;;5037317;28;20052;-61
2022/03/18 07:21:08;;;;;;;28.27;13.38;;;1.70;99.90;;;;;;5045003;28;20517;-61
2022/03/18 07:23:34;;;;;;;25.42;14.45;;;1.80;99.90;;;;;;5048424;28;20040;-61
2022/03/18 07:25:59;;;;;;;25.52;16.05;;;1.90;99.90;;;;;;5048571;28;20037;-61
2022/03/18 07:28:25;;;;;;;27.08;15.73;;;2.00;99.90;;;;;;5046731;28;20033;-61
2022/03/18 07:30:50;;;;;;;29.02;16.65;;;2.00;99.90;;;;;;5048344;28;20435;-61
2022/03/18 07:33:16;;;;;;;27.65;18.10;;;2.10;99.90;;;;;;5048412;28;20533;-61
2022/03/18 07:35:42;;;;;;;27.77;18.77;;;2.30;99.90;;;;;;5038087;28;20029;-61
2022/03/18 07:38:09;;;;;;;35.13;18.75;;;2.40;99.90;;;;;;5044666;28;20032;-61
2022/03/18 07:40:36;;;;;;;36.85;19.00;;;2.50;99.90;;;;;;5048685;28;20039;-61
2022/03/18 07:43:02;;;;;;;31.05;20.42;;;2.60;99.90;;;;;;5041201;28;20037;-61
2022/03/18 07:45:29;;;;;;;37.17;21.45;;;2.70;99.90;;;;;;5041062;28;20086;-61
2022/03/18 07:47:57;;;;;;;37.60;20.88;;;2.90;99.90;;;;;;5048632;28;20040;-61
2022/03/18 07:50:25;;;;;;;33.95;21.08;;;3.00;99.90;;;;;;5048533;28;20033;-61
2022/03/18 07:52:53;;;;;;;39.92;23.25;;;3.10;99.90;;;;;;5030077;28;20072;-61
2022/03/18 07:55:20;;;;;;;40.72;22.17;;;3.20;99.90;;;;;;5048066;28;20108;-61
2022/03/18 07:57:46;;;;;;;36.10;22.40;;;3.30;99.90;;;;;;5048399;28;20141;-61
2022/03/18 08:00:13;;;;;;;37.47;22.10;;;3.50;99.90;;;;;;5048233;28;20572;-61
2022/03/18 08:02:43;;;;;;;35.80;21.13;;;3.60;99.90;;;;;;5035453;28;20495;-61
2022/03/18 08:05:10;;;;;;;37.55;21.77;;;3.70;99.90;;;;;;5048270;28;20078;-61
2022/03/18 08:07:37;;;;;;;39.08;24.15;;;3.90;99.90;;;;;;5045092;28;20114;-61
2022/03/18 08:10:04;;;;;;;36.47;23.45;;;4.00;99.90;;;;;;5043732;28;20642;-61
2022/03/18 08:12:30;;;;;;;39.42;22.45;;;4.10;99.90;;;;;;5047972;28;20039;-61
2022/03/18 08:14:57;;;;;;;46.45;23.02;;;4.20;99.90;;;;;;5048079;28;20111;-61
2022/03/18 08:17:23;;;;;;;44.08;23.10;;;4.40;99.90;;;;;;5045523;28;20068;-61
2022/03/18 08:19:50;;;;;;;36.95;21.42;;;4.60;99.90;;;;;;5046779;28;20071;-61
2022/03/18 08:22:16;;;;;;;34.72;22.50;;;4.70;99.90;;;;;;5047757;28;20044;-61
2022/03/18 08:24:42;;;;;;;34.78;21.92;;;4.80;99.90;;;;;;5041772;28;20705;-61
2022/03/18 08:27:07;;;;;;;37.67;21.75;;;4.90;99.90;;;;;;5039863;28;20041;-61
2022/03/18 08:29:33;;;;;;;35.70;21.90;;;5.00;99.90;;;;;;5047766;28;20047;-61
2022/03/18 08:31:58;;;;;;;41.40;22.30;;;5.20;99.90;;;;;;5047977;28;20039;-61
2022/03/18 08:34:24;;;;;;;40.90;22.40;;;5.30;99.90;;;;;;5040181;28;20482;-61
2022/03/18 08:36:49;;;;;;;35.67;22.67;;;5.40;99.90;;;;;;5032413;28;20060;-61
2022/03/18 08:39:15;;;;;;;39.65;22.58;;;5.50;99.90;;;;;;5047240;28;20128;-61
2022/03/18 08:41:41;;;;;;;35.47;21.02;;;5.60;99.90;;;;;;5038933;28;20076;-61
2022/03/18 08:44:07;;;;;;;35.67;21.65;;;5.70;99.90;;;;;;5015890;28;20045;-61
2022/03/18 08:46:34;;;;;;;32.22;20.35;;;5.80;99.90;;;;;;5047355;28;20069;-61
2022/03/18 08:49:00;;;;;;;35.95;20.85;;;5.90;99.90;;;;;;5047455;28;20045;-61
2022/03/18 08:51:26;;;;;;;43.58;21.35;;;6.00;99.90;;;;;;5021160;28;20071;-61
2022/03/18 08:53:51;;;;;;;38.20;20.10;;;6.10;99.90;;;;;;5037300;28;20038;-61
2022/03/18 08:56:17;;;;;;;36.25;21.05;;;6.20;99.90;;;;;;5047343;28;20491;-62
2022/03/18 08:58:42;;;;;;;37.58;20.60;;;6.30;99.90;;;;;;5040006;28;20067;-61
2022/03/18 09:01:08;;;;;;;39.10;20.55;;;6.30;99.90;;;;;;5050489;28;20059;-62
2022/03/18 09:03:33;;;;;;;33.47;19.98;;;6.50;99.90;;;;;;5051037;28;20041;-61
2022/03/18 09:06:00;;;;;;;39.40;20.30;;;6.60;99.90;;;;;;5040516;28;20036;-61
2022/03/18 09:08:26;;;;;;;36.15;19.80;;;6.70;99.90;;;;;;5050939;28;20058;-61
2022/03/18 09:10:51;;;;;;;43.25;21.98;;;6.70;99.90;;;;;;5051638;28;20029;-61
2022/03/18 09:13:17;;;;;;;38.85;20.30;;;6.90;99.90;;;;;;5048037;28;20045;-61
2022/03/18 09:15:43;;;;;;;34.80;19.98;;;7.00;99.90;;;;;;5041619;28;20456;-62
2022/03/18 09:18:09;;;;;;;38.47;19.58;;;7.10;99.90;;;;;;5040899;28;20533;-61
2022/03/18 09:20:35;;;;;;;33.70;20.27;;;7.20;99.90;;;;;;5049887;28;20041;-61
2022/03/18 09:23:00;;;;;;;33.63;19.98;;;7.30;99.90;;;;;;5030389;28;20037;-61
2022/03/18 09:25:26;;;;;;;32.88;20.85;;;7.40;99.90;;;;;;5040994;28;20133;-61
2022/03/18 09:27:51;;;;;;;34.05;19.90;;;7.50;99.90;;;;;;5050857;28;20033;-62
2022/03/18 09:30:17;;;;;;;31.75;20.08;;;7.60;99.90;;;;;;5051064;28;20063;-62
2022/03/18 09:32:43;;;;;;;36.50;20.45;;;7.70;99.90;;;;;;5044100;28;20045;-61
2022/03/18 09:35:10;;;;;;;36.55;19.77;;;7.80;99.90;;;;;;5050781;28;20029;-61
2022/03/18 09:37:36;;;;;;;34.20;19.85;;;7.90;99.90;;;;;;5051049;28;20120;-61
2022/03/18 09:40:04;;;;;;;30.35;19.60;;;8.00;99.90;;;;;;5038925;28;20029;-62
2022/03/18 09:42:32;;;;;;;35.25;20.05;;;8.10;99.90;;;;;;5034039;28;20123;-61
2022/03/18 09:44:57;;;;;;;37.67;19.70;;;8.10;99.90;;;;;;5050173;28;20044;-61
2022/03/18 09:47:24;;;;;;;35.53;19.98;;;8.20;99.90;;;;;;5049757;28;20029;-61
2022/03/18 09:49:49;;;;;;;36.25;20.13;;;8.30;99.90;;;;;;5046672;28;20132;-61
2022/03/18 09:52:15;;;;;;;29.70;20.05;;;8.40;99.90;;;;;;5041251;28;20190;-61
2022/03/18 09:54:41;;;;;;;38.40;19.60;;;8.50;99.90;;;;;;5050154;28;20033;-61
2022/03/18 09:57:07;;;;;;;36.20;19.48;;;8.60;99.90;;;;;;5050613;28;20036;-61
2022/03/18 09:59:33;;;;;;;31.05;19.00;;;8.70;99.90;;;;;;5050842;28;20037;-61
2022/03/18 10:02:20;;;;;;;31.05;18.90;;;8.80;99.90;;;;;;5042197;28;20032;-61
2022/03/18 10:04:56;;;;;;;36.33;21.30;;;9.00;99.90;;;;;;5042012;28;20072;-61
2022/03/18 10:07:22;;;;;;;34.03;20.70;;;9.10;99.90;;;;;;5042322;28;20037;-61
2022/03/18 10:09:59;;;;;;;32.28;19.25;;;9.10;99.90;;;;;;5049381;28;20045;-61
2022/03/18 10:12:33;;;;;;;34.95;19.33;;;9.30;99.90;;;;;;5033312;28;20120;-61
2022/03/18 10:15:08;;;;;;;33.70;18.33;;;9.40;99.90;;;;;;5049234;28;20033;-61
2022/03/18 10:17:41;;;;;;;35.45;19.00;;;9.50;99.90;;;;;;5050180;28;20495;-61
2022/03/18 10:20:08;;;;;;;37.63;18.83;;;9.60;99.90;;;;;;5050370;28;20036;-61
2022/03/18 10:22:36;;;;;;;30.95;17.13;;;9.70;99.90;;;;;;5034582;28;20048;-61
2022/03/18 10:25:02;;;;;;;31.85;18.27;;;9.80;99.90;;;;;;5040346;28;20032;-61
2022/03/18 10:27:28;;;;;;;31.27;19.48;;;9.90;99.90;;;;;;5037071;28;20037;-62
2022/03/18 10:29:55;;;;;;;37.10;20.30;;;10.00;99.90;;;;;;5044230;28;20102;-62
2022/03/18 10:32:23;;;;;;;35.22;20.27;;;10.00;99.90;;;;;;5042624;28;20036;-62
2022/03/18 10:37:45;;;;;;;33.75;18.67;;;10.30;99.90;;;;;;5048063;28;20044;-62
2022/03/18 10:40:12;;;;;;;31.88;19.23;;;10.50;99.90;;;;;;5021010;28;20711;-61
2022/03/18 10:42:38;;;;;;;31.77;18.10;;;10.60;99.90;;;;;;5045886;28;20037;-61
2022/03/18 10:45:06;;;;;;;31.45;18.38;;;10.60;99.90;;;;;;5049041;28;20143;-62
2022/03/18 10:47:36;;;;;;;29.00;18.05;;;10.60;99.90;;;;;;5049426;28;20068;-61
2022/03/18 10:50:11;;;;;;;28.20;18.02;;;10.60;99.90;;;;;;5038076;28;20075;-61
2022/03/18 10:52:46;;;;;;;29.48;18.38;;;10.60;99.90;;;;;;5048732;28;20048;-61
2022/03/18 10:55:26;;;;;;;33.15;19.40;;;10.70;99.90;;;;;;5047324;28;20408;-62
2022/03/18 10:58:02;;;;;;;29.27;17.20;;;10.90;99.90;;;;;;5048844;28;20037;-63
2022/03/18 11:00:34;;;;;;;30.92;17.73;;;10.90;99.90;;;;;;5049045;28;20545;-62
2022/03/18 11:03:01;;;;;;;;;;;11.00;99.90;;;;;;5047241;28;20782;-61
2022/03/18 11:05:52;;;;;;;31.23;18.80;;;11.00;99.90;;;;;;5036274;28;20078;-62
2022/03/18 11:08:22;;;;;;;29.40;16.92;;;11.00;99.90;;;;;;5042346;28;20048;-62
2022/03/18 11:13:56;;;;;;;29.17;16.70;;;11.30;99.90;;;;;;4985404;28;20508;-62
2022/03/18 11:16:31;;;;;;;28.08;16.38;;;11.50;99.90;;;;;;5048012;28;20655;-62
2022/03/18 11:18:58;;;;;;;28.02;16.80;;;11.60;99.90;;;;;;5048637;28;20044;-61
2022/03/18 11:21:35;;;;;;;28.42;15.70;;;11.80;99.90;;;;;;5034226;28;20086;-62
2022/03/18 11:24:03;;;;;;;24.80;15.70;;;11.70;99.90;;;;;;5040088;28;20040;-62
2022/03/18 11:26:29;;;;;;;26.90;15.32;;;11.80;99.90;;;;;;5030866;28;20539;-62
2022/03/18 11:29:07;;;;;;;25.10;15.20;;;11.90;99.90;;;;;;5041595;28;20135;-62
2022/03/18 11:31:33;;;;;;;25.45;14.68;;;12.10;99.90;;;;;;5041331;28;20025;-63
2022/03/18 11:34:15;;;;;;;24.05;14.75;;;12.10;99.90;;;;;;5047464;28;20044;-62
2022/03/18 11:36:46;;;;;;;31.63;14.60;;;12.20;99.90;;;;;;5037926;28;20534;-63
2022/03/18 11:39:21;;;;;;;22.07;14.47;;;12.30;99.90;;;;;;5048510;28;20087;-62
2022/03/18 11:41:53;;;;;;;23.27;13.52;;;12.40;99.90;;;;;;5047923;28;20037;-62
2022/03/18 11:44:44;;;;;;;22.95;13.40;;;12.40;99.90;;;;;;5043698;28;20090;-62
2022/03/18 11:47:30;;;;;;;23.23;14.55;;;12.50;99.90;;;;;;5046818;28;20040;-62
2022/03/18 11:49:58;;;;;;;25.90;14.30;;;12.70;99.90;;;;;;5047974;28;20049;-62
2022/03/18 11:52:23;;;;;;;24.30;15.10;;;12.80;99.90;;;;;;5039257;28;20116;-61
2022/03/18 11:55:08;;;;;;;23.73;14.40;;;12.80;99.90;;;;;;5047109;28;20116;-63
2022/03/18 11:57:51;;;;;;;24.88;14.18;;;12.80;99.90;;;;;;5048295;28;20037;-62
2022/03/18 12:00:32;;;;;;;22.05;13.65;;;12.90;99.90;;;;;;5048346;28;20080;-62
2022/03/18 12:03:00;;;;;;;22.52;13.35;;;13.00;99.90;;;;;;5030595;28;20045;-62
2022/03/18 12:05:31;;;;;;;20.67;13.98;;;13.10;99.90;;;;;;5043348;28;20048;-62
2022/03/18 12:07:57;;;;;;;23.13;12.93;;;13.30;99.90;;;;;;5048199;28;20247;-62
2022/03/18 12:10:38;;;;;;;19.67;13.07;;;13.50;99.90;;;;;;5028178;28;20483;-61
2022/03/18 12:13:05;;;;;;;20.88;12.80;;;13.60;99.90;;;;;;5045056;28;20051;-62
2022/03/18 12:15:35;;;;;;;22.38;11.95;;;13.80;99.90;;;;;;5047973;28;20499;-62
2022/03/18 12:18:01;;;;;;;16.27;10.68;;;13.80;99.90;;;;;;5036600;28;20038;-62
2022/03/18 12:20:35;;;;;;;17.42;10.10;;;13.80;99.90;;;;;;5024472;28;20053;-62
2022/03/18 12:23:05;;;;;;;19.45;12.07;;;13.70;99.90;;;;;;5038834;28;20045;-62
2022/03/18 12:25:31;;;;;;;23.83;11.03;;;13.70;99.90;;;;;;5037298;28;20064;-62
2022/03/18 12:27:57;;;;;;;18.15;10.95;;;13.90;99.90;;;;;;5046931;28;20075;-62
2022/03/18 12:30:27;;;;;;;18.85;11.10;;;14.00;99.90;;;;;;5047201;28;20402;-63
2022/03/18 12:32:54;;;;;;;24.17;11.90;;;14.10;99.90;;;;;;5046783;28;20122;-62
2022/03/18 12:35:35;;;;;;;18.27;10.75;;;14.30;99.90;;;;;;5045953;28;20056;-63
2022/03/18 12:38:09;;;;;;;20.07;11.00;;;14.30;99.90;;;;;;5042523;28;20040;-63
2022/03/18 12:40:36;;;;;;;22.00;11.98;;;14.40;99.90;;;;;;5047404;28;20095;-62
2022/03/18 12:43:03;;;;;;;21.13;11.07;;;14.40;99.90;;;;;;5027742;28;20572;-62
2022/03/18 12:45:42;;;;;;;16.92;10.35;;;14.60;99.90;;;;;;5036614;28;20044;-62
2022/03/18 12:48:27;;;;;;;15.52;8.85;;;15.00;99.90;;;;;;5021229;28;20538;-62
2022/03/18 12:50:58;;;;;;;18.77;9.75;;;15.10;99.90;;;;;;5033460;28;20700;-62
2022/03/18 12:53:27;;;;;;;15.65;8.32;;;15.40;99.90;;;;;;5031452;28;20694;-62
2022/03/18 12:55:55;;;;;;;16.05;6.93;;;15.60;99.90;;;;;;5023889;28;20042;-62